createdAt,value
2022-08-10T00:01:53.296Z,37.93
2022-08-10T00:04:22.547Z,38.92
2022-08-10T00:06:53.447Z,38.12
2022-08-10T00:09:21.505Z,37.48
2022-08-10T00:11:48.845Z,37.97
2022-08-10T00:14:16.271Z,38.37
2022-08-10T00:16:43.935Z,39.06
2022-08-10T00:19:11.358Z,38.40
2022-08-10T00:21:38.757Z,38.32
2022-08-10T00:24:06.552Z,38.08
2022-08-10T00:27:52.062Z,37.75
2022-08-10T00:29:22.356Z,38.47
2022-08-10T00:31:58.259Z,38.34
2022-08-10T00:34:27.969Z,37.75
2022-08-10T00:36:55.725Z,38.74
2022-08-10T00:39:23.170Z,38.46
2022-08-10T00:42:06.841Z,37.86
2022-08-10T00:44:36.689Z,38.38
2022-08-10T00:47:04.744Z,39.13
2022-08-10T00:49:32.173Z,39.17
2022-08-10T00:51:59.541Z,39.77
2022-08-10T00:54:27.180Z,40.82
2022-08-10T00:57:15.843Z,39.05
2022-08-10T00:59:59.159Z,39.03
2022-08-10T01:02:29.240Z,40.21
2022-08-10T01:05:01.909Z,40.61
2022-08-10T01:08:23.708Z,40.16
2022-08-10T01:12:47.587Z,39.86
2022-08-10T01:14:00.905Z,41.15
2022-08-10T01:16:35.189Z,40.66
2022-08-10T01:19:23.872Z,40.86
2022-08-10T01:22:12.881Z,40.12
2022-08-10T01:24:51.328Z,41.65
2022-08-10T01:27:27.637Z,41.60
2022-08-10T01:30:08.858Z,41.16
2022-08-10T01:32:45.950Z,40.55
2022-08-10T01:35:30.553Z,43.45
2022-08-10T01:38:17.222Z,42.00
2022-08-10T01:40:53.886Z,42.54
2022-08-10T01:43:21.791Z,42.24
2022-08-10T01:45:55.312Z,42.06
2022-08-10T01:48:33.323Z,41.99
2022-08-10T01:51:37.470Z,43.03
2022-08-10T01:54:12.994Z,43.03
2022-08-10T01:56:43.213Z,42.96
2022-08-10T01:59:38.051Z,42.37
2022-08-10T02:02:08.145Z,42.26
2022-08-10T02:04:37.669Z,41.95
2022-08-10T02:07:06.201Z,41.94
2022-08-10T02:09:36.460Z,41.85
2022-08-10T02:12:08.606Z,42.10
2022-08-10T02:14:43.066Z,41.66
2022-08-10T02:18:00.113Z,42.34
2022-08-10T02:20:01.977Z,41.72
2022-08-10T02:22:46.004Z,42.52
2022-08-10T02:25:42.001Z,41.69
2022-08-10T02:28:02.307Z,41.44
2022-08-10T02:30:29.672Z,40.42
2022-08-10T02:32:58.228Z,40.25
2022-08-10T02:35:33.456Z,41.72
2022-08-10T02:38:15.651Z,42.57
2022-08-10T02:45:00.913Z,41.27
2022-08-10T02:45:22.069Z,41.84
2022-08-10T02:46:27.950Z,41.26
2022-08-10T02:49:00.870Z,40.30
2022-08-10T02:52:06.451Z,40.81
2022-08-10T02:54:47.502Z,41.01
2022-08-10T02:57:23.077Z,40.84
2022-08-10T02:59:51.736Z,41.22
2022-08-10T03:02:25.804Z,40.90
2022-08-10T03:04:58.078Z,40.43
2022-08-10T03:07:43.559Z,40.81
2022-08-10T03:10:39.774Z,41.78
2022-08-10T03:13:09.657Z,41.09
2022-08-10T03:15:37.669Z,41.12
2022-08-10T03:18:05.565Z,40.60
2022-08-10T03:20:40.536Z,41.37
2022-08-10T03:23:15.512Z,41.68
2022-08-10T03:25:53.578Z,40.90
2022-08-10T03:28:22.970Z,41.58
2022-08-10T03:30:50.877Z,42.63
2022-08-10T03:33:18.233Z,41.02
2022-08-10T03:36:42.310Z,41.83
2022-08-10T03:38:33.890Z,41.98
2022-08-10T03:41:05.430Z,41.33
2022-08-10T03:43:33.973Z,40.84
2022-08-10T03:46:03.223Z,41.46
2022-08-10T03:48:44.703Z,41.41
2022-08-10T03:51:18.932Z,42.17
2022-08-10T03:54:05.093Z,40.64
2022-08-10T03:56:36.082Z,40.38
2022-08-10T03:59:04.195Z,40.77
2022-08-10T04:02:45.055Z,40.60
2022-08-10T04:04:24.192Z,40.39
2022-08-10T04:06:54.532Z,39.86
2022-08-10T04:09:25.168Z,40.61
2022-08-10T04:12:10.961Z,40.28
2022-08-10T04:14:51.537Z,40.44
2022-08-10T04:18:02.706Z,41.07
2022-08-10T04:20:34.676Z,42.65
2022-08-10T04:23:06.601Z,41.81
2022-08-10T04:25:34.285Z,41.92
2022-08-10T04:28:03.189Z,40.19
2022-08-10T04:30:30.772Z,41.64
2022-08-10T04:32:59.601Z,41.13
2022-08-10T04:35:26.948Z,39.97
2022-08-10T04:37:54.352Z,40.66
2022-08-10T04:40:28.233Z,41.25
2022-08-10T04:43:02.461Z,41.80
2022-08-10T04:45:48.263Z,41.28
2022-08-10T04:48:40.551Z,40.88
2022-08-10T04:51:17.342Z,40.81
2022-08-10T04:54:04.664Z,39.86
2022-08-10T04:56:35.649Z,39.14
2022-08-10T04:59:03.781Z,39.17
2022-08-10T05:02:22.236Z,39.58
2022-08-10T05:04:35.232Z,38.92
2022-08-10T05:07:10.547Z,39.71
2022-08-10T05:10:04.751Z,38.10
2022-08-10T05:12:30.102Z,39.23
2022-08-10T05:14:57.723Z,38.59
2022-08-10T05:17:25.110Z,37.12
2022-08-10T05:20:03.228Z,38.01
2022-08-10T05:22:44.974Z,36.00
2022-08-10T05:25:17.594Z,36.96
2022-08-10T05:27:45.682Z,37.09
2022-08-10T05:30:20.130Z,33.86
2022-08-10T05:32:57.679Z,31.32
2022-08-10T05:35:28.144Z,30.95
2022-08-10T05:38:11.818Z,28.54
2022-08-10T05:40:46.957Z,28.23
2022-08-10T05:43:17.667Z,27.42
2022-08-10T05:46:17.340Z,27.48
2022-08-10T05:48:54.508Z,27.13
2022-08-10T05:51:20.962Z,27.20
2022-08-10T05:54:03.407Z,28.87
2022-08-10T05:56:56.894Z,27.48
2022-08-10T06:00:34.657Z,27.38
2022-08-10T06:02:32.488Z,24.82
2022-08-10T06:05:06.614Z,28.09
2022-08-10T06:07:34.170Z,27.07
2022-08-10T06:10:01.980Z,25.31
2022-08-10T06:12:30.524Z,26.02
2022-08-10T06:15:05.559Z,24.94
2022-08-10T06:17:33.699Z,24.65
2022-08-10T06:20:01.444Z,25.68
2022-08-10T06:22:30.102Z,27.23
2022-08-10T06:25:32.003Z,27.11
2022-08-10T06:27:45.082Z,24.87
2022-08-10T06:30:20.401Z,22.38
2022-08-10T06:32:49.766Z,22.19
2022-08-10T06:35:17.779Z,25.67
2022-08-10T06:37:50.995Z,24.95
2022-08-10T06:40:20.226Z,26.43
2022-08-10T06:42:49.070Z,25.49
2022-08-10T06:45:23.366Z,23.66
2022-08-10T06:48:00.640Z,24.38
2022-08-10T06:50:58.715Z,26.22
2022-08-10T06:53:53.501Z,24.50
2022-08-10T06:56:36.668Z,23.62
2022-08-10T06:59:13.118Z,24.98
2022-08-10T07:01:52.242Z,25.60
2022-08-10T07:04:33.391Z,24.62
2022-08-10T07:07:03.937Z,22.33
2022-08-10T07:09:32.698Z,21.70
2022-08-10T07:12:08.369Z,21.42
2022-08-10T07:14:37.742Z,20.41
2022-08-10T07:17:05.702Z,22.58
2022-08-10T07:19:33.097Z,23.91
2022-08-10T07:22:00.721Z,24.38
2022-08-10T07:24:28.085Z,25.31
2022-08-10T07:26:55.580Z,23.90
2022-08-10T07:29:53.868Z,24.02
2022-08-10T07:32:15.510Z,20.55
2022-08-10T07:34:43.189Z,20.38
2022-08-10T07:37:10.555Z,20.04
2022-08-10T07:39:58.008Z,19.97
2022-08-10T07:42:26.256Z,20.61
2022-08-10T07:44:53.643Z,21.85
2022-08-10T07:47:52.306Z,21.93
2022-08-10T07:50:21.475Z,19.62
2022-08-10T07:52:48.895Z,19.52
2022-08-10T07:55:17.334Z,19.05
2022-08-10T07:57:45.013Z,20.10
2022-08-10T08:00:12.822Z,18.91
2022-08-10T08:02:51.710Z,18.74
2022-08-10T08:05:51.807Z,17.52
2022-08-10T08:08:08.449Z,17.31
2022-08-10T08:10:35.878Z,16.86
2022-08-10T08:13:03.334Z,18.56
2022-08-10T08:16:17.153Z,18.75
2022-08-10T08:18:24.847Z,16.31
2022-08-10T08:20:54.333Z,16.16
2022-08-10T08:24:06.068Z,17.37
2022-08-10T08:26:10.612Z,16.81
2022-08-10T08:28:38.657Z,15.90
2022-08-10T08:31:06.037Z,17.95
2022-08-10T08:33:41.618Z,19.24
2022-08-10T08:36:10.258Z,18.73
2022-08-10T08:38:37.930Z,18.95
2022-08-10T08:41:17.332Z,20.61
2022-08-10T08:44:15.517Z,21.10
2022-08-10T08:48:02.227Z,20.31
2022-08-10T08:50:07.635Z,19.88
2022-08-10T08:52:55.688Z,17.11
2022-08-10T08:56:05.078Z,15.21
2022-08-10T08:58:29.343Z,14.60
2022-08-10T09:01:22.894Z,19.57
2022-08-10T09:04:19.877Z,16.00
2022-08-10T09:08:01.187Z,16.77
2022-08-10T09:10:25.680Z,18.43
2022-08-10T09:12:57.786Z,15.80
2022-08-10T09:15:40.914Z,14.83
2022-08-10T09:18:17.969Z,16.03
2022-08-10T09:21:09.903Z,14.70
2022-08-10T09:24:05.556Z,14.09
2022-08-10T09:26:42.472Z,13.22
2022-08-10T09:29:13.492Z,13.17
2022-08-10T09:33:05.331Z,12.38
2022-08-10T09:36:22.449Z,13.28
2022-08-10T09:38:03.198Z,15.43
2022-08-10T09:41:00.266Z,18.65
2022-08-10T09:43:40.934Z,14.79
2022-08-10T09:46:20.925Z,15.63
2022-08-10T09:49:12.121Z,17.26
2022-08-10T09:52:02.010Z,14.68
2022-08-10T09:55:04.806Z,14.85
2022-08-10T09:58:11.558Z,15.88
2022-08-10T10:00:42.019Z,13.70
2022-08-10T10:03:17.297Z,15.50
2022-08-10T10:06:06.847Z,15.09
2022-08-10T10:08:43.125Z,14.97
2022-08-10T10:11:33.382Z,14.83
2022-08-10T10:14:16.510Z,14.78
2022-08-10T10:16:55.422Z,16.24
2022-08-10T10:19:49.326Z,16.82
2022-08-10T10:22:38.148Z,15.80
2022-08-10T10:25:19.931Z,15.84
2022-08-10T10:27:59.526Z,13.97
2022-08-10T10:30:28.357Z,13.75
2022-08-10T10:33:03.132Z,14.66
2022-08-10T10:35:41.639Z,12.40
2022-08-10T10:38:09.917Z,14.91
2022-08-10T10:41:13.299Z,14.02
2022-08-10T10:44:08.506Z,15.38
2022-08-10T10:47:09.493Z,15.25
2022-08-10T10:49:55.217Z,17.11
2022-08-10T10:52:32.272Z,17.44
2022-08-10T10:56:13.895Z,20.01
2022-08-10T10:58:43.630Z,20.61
2022-08-10T11:01:16.883Z,21.52
2022-08-10T11:03:47.234Z,23.85
2022-08-10T11:06:45.505Z,22.47
2022-08-10T11:10:03.131Z,21.88
2022-08-10T11:12:50.029Z,22.29
2022-08-10T11:15:26.504Z,22.54
2022-08-10T11:18:05.871Z,22.69
2022-08-10T11:20:51.707Z,22.08
2022-08-10T11:23:33.174Z,23.64
2022-08-10T11:26:08.841Z,23.20
2022-08-10T11:28:46.440Z,23.77
2022-08-10T11:31:22.388Z,24.85
2022-08-10T11:34:47.560Z,24.88
2022-08-10T11:37:21.478Z,23.54
2022-08-10T11:40:15.077Z,25.24
2022-08-10T11:43:01.210Z,23.49
2022-08-10T11:45:36.718Z,23.78
2022-08-10T11:48:53.462Z,22.65
2022-08-10T11:51:25.461Z,22.56
2022-08-10T11:54:05.489Z,22.94
2022-08-10T11:56:48.818Z,23.70
2022-08-10T11:59:35.771Z,23.03
2022-08-10T12:02:04.732Z,22.86
2022-08-10T12:04:33.074Z,22.24
2022-08-10T12:07:00.526Z,22.79
2022-08-10T12:10:06.307Z,22.65
2022-08-10T12:12:16.578Z,21.86
2022-08-10T12:14:48.686Z,21.76
2022-08-10T12:17:18.834Z,21.71
2022-08-10T12:20:02.670Z,21.86
2022-08-10T12:22:49.463Z,22.68
2022-08-10T12:25:56.927Z,22.07
2022-08-10T12:28:18.365Z,21.05
2022-08-10T12:30:56.634Z,21.58
2022-08-10T12:33:31.851Z,19.80
2022-08-10T12:36:28.873Z,21.18
2022-08-10T12:38:59.344Z,21.22
2022-08-10T12:41:45.096Z,21.56
2022-08-10T12:44:22.266Z,21.89
2022-08-10T12:47:15.767Z,21.46
2022-08-10T12:50:31.462Z,20.90
2022-08-10T12:52:58.122Z,20.41
2022-08-10T12:55:26.543Z,18.83
2022-08-10T12:57:55.284Z,21.28
2022-08-10T13:00:33.520Z,21.90
2022-08-10T13:03:01.934Z,21.38
2022-08-10T13:05:29.582Z,21.65
2022-08-10T13:08:35.813Z,22.03
2022-08-10T13:11:04.307Z,21.43
2022-08-10T13:13:36.667Z,22.15
2022-08-10T13:16:04.307Z,22.32
2022-08-10T13:18:41.803Z,22.23
2022-08-10T13:21:19.897Z,22.49
2022-08-10T13:24:20.291Z,21.69
2022-08-10T13:27:24.636Z,21.34
2022-08-10T13:29:43.317Z,21.45
2022-08-10T13:32:11.318Z,21.67
2022-08-10T13:34:45.087Z,22.12
2022-08-10T13:37:17.339Z,22.97
2022-08-10T13:39:57.737Z,21.42
2022-08-10T13:42:32.354Z,21.34
2022-08-10T13:45:17.654Z,21.36
2022-08-10T13:47:49.226Z,22.04
2022-08-10T13:50:33.421Z,21.65
2022-08-10T13:53:03.854Z,21.39
2022-08-10T13:55:48.682Z,22.48
2022-08-10T13:58:25.435Z,21.78
2022-08-10T14:00:53.589Z,20.77
2022-08-10T14:03:21.310Z,21.29
2022-08-10T14:05:53.207Z,22.81
2022-08-10T14:08:25.652Z,22.42
2022-08-10T14:11:09.044Z,22.05
2022-08-10T14:13:56.680Z,22.59
2022-08-10T14:16:24.478Z,22.52
2022-08-10T14:18:53.464Z,22.88
2022-08-10T14:21:21.094Z,22.79
2022-08-10T14:23:53.284Z,21.69
2022-08-10T14:26:26.717Z,21.76
2022-08-10T14:28:57.507Z,21.91
2022-08-10T14:31:30.268Z,21.63
2022-08-10T14:33:58.009Z,21.48
2022-08-10T14:36:37.350Z,21.25
2022-08-10T14:39:06.162Z,20.96
2022-08-10T14:42:03.224Z,21.90
2022-08-10T14:44:23.223Z,22.39
2022-08-10T14:46:53.995Z,21.97
2022-08-10T14:49:26.153Z,21.28
2022-08-10T14:51:59.729Z,21.68
2022-08-10T14:54:29.701Z,21.20
2022-08-10T14:57:10.576Z,21.42
2022-08-10T15:00:23.286Z,21.42
2022-08-10T15:02:38.236Z,20.72
2022-08-10T15:05:09.679Z,20.97
2022-08-10T15:07:37.903Z,20.26
2022-08-10T15:10:08.090Z,20.81
2022-08-10T15:12:39.163Z,20.84
2022-08-10T15:15:09.528Z,20.68
2022-08-10T15:17:43.161Z,20.57
2022-08-10T15:20:21.053Z,21.32
2022-08-10T15:22:56.240Z,21.91
2022-08-10T15:25:24.831Z,22.49
2022-08-10T15:28:04.291Z,21.52
2022-08-10T15:30:39.661Z,21.60
2022-08-10T15:34:02.556Z,21.77
2022-08-10T15:36:37.389Z,21.43
2022-08-10T15:40:24.116Z,21.47
2022-08-10T15:42:19.987Z,21.32
2022-08-10T15:44:49.946Z,21.48
2022-08-10T15:47:24.554Z,21.55
2022-08-10T15:49:58.834Z,21.35
2022-08-10T15:52:39.266Z,21.12
2022-08-10T15:55:44.403Z,20.92
2022-08-10T15:58:12.454Z,21.10
2022-08-10T16:00:44.266Z,21.92
2022-08-10T16:03:44.215Z,22.35
2022-08-10T16:06:29.777Z,23.03
2022-08-10T16:10:24.331Z,22.43
2022-08-10T16:12:29.989Z,22.03
2022-08-10T16:15:00.345Z,22.46
2022-08-10T16:17:28.768Z,22.52
2022-08-10T16:19:57.617Z,22.91
2022-08-10T16:22:37.192Z,22.87
2022-08-10T16:25:13.898Z,23.90
2022-08-10T16:27:42.156Z,23.05
2022-08-10T16:30:09.747Z,23.00
2022-08-10T16:32:37.192Z,22.65
2022-08-10T16:35:08.846Z,23.07
2022-08-10T16:37:57.185Z,22.92
2022-08-10T16:40:29.694Z,22.55
2022-08-10T16:42:58.113Z,23.14
2022-08-10T16:45:36.988Z,23.25
2022-08-10T16:48:04.797Z,23.24
2022-08-10T16:50:37.612Z,23.35
2022-08-10T16:53:06.940Z,22.64
2022-08-10T16:55:48.886Z,22.66
2022-08-10T16:58:20.640Z,22.69
2022-08-10T17:00:48.323Z,23.14
2022-08-10T17:03:22.710Z,23.81
2022-08-10T17:06:10.901Z,23.23
2022-08-10T17:08:48.050Z,23.00
2022-08-10T17:11:21.069Z,23.28
2022-08-10T17:13:48.550Z,24.16
2022-08-10T17:16:17.088Z,23.90
2022-08-10T17:18:46.933Z,23.94
2022-08-10T17:21:19.602Z,24.38
2022-08-10T17:23:52.626Z,24.34
2022-08-10T17:26:36.125Z,24.04
2022-08-10T17:29:53.279Z,24.06
2022-08-10T17:32:06.627Z,23.85
2022-08-10T17:34:38.731Z,24.56
2022-08-10T17:37:11.167Z,24.24
2022-08-10T17:39:41.394Z,24.26
2022-08-10T17:42:08.895Z,23.89
2022-08-10T17:44:37.440Z,24.20
2022-08-10T17:47:10.564Z,23.92
2022-08-10T17:49:40.181Z,23.87
2022-08-10T17:52:08.806Z,23.32
2022-08-10T17:54:38.730Z,23.98
2022-08-10T17:57:11.350Z,25.29
2022-08-10T17:59:39.032Z,25.62
2022-08-10T18:02:11.990Z,25.97
2022-08-10T18:04:42.261Z,26.22
2022-08-10T18:07:10.495Z,26.49
2022-08-10T18:09:43.710Z,26.66
2022-08-10T18:12:31.986Z,26.64
2022-08-10T18:15:05.849Z,26.83
2022-08-10T18:17:39.294Z,27.02
2022-08-10T18:20:07.905Z,26.98
2022-08-10T18:22:44.134Z,27.17
2022-08-10T18:25:24.915Z,27.41
2022-08-10T18:28:03.833Z,28.12
2022-08-10T18:30:36.346Z,28.11
2022-08-10T18:33:04.870Z,28.01
2022-08-10T18:35:34.565Z,28.01
2022-08-10T18:38:02.719Z,27.94
2022-08-10T18:40:35.506Z,27.87
2022-08-10T18:44:02.914Z,28.35
2022-08-10T18:45:56.982Z,28.22
2022-08-10T18:48:33.242Z,28.53
2022-08-10T18:51:05.440Z,28.44
2022-08-10T18:53:36.327Z,29.16
2022-08-10T18:56:26.673Z,29.28
2022-08-10T18:59:21.970Z,28.63
2022-08-10T19:02:11.544Z,28.62
2022-08-10T19:04:49.161Z,28.90
2022-08-10T19:07:45.693Z,29.00
2022-08-10T19:10:44.242Z,28.50
2022-08-10T19:13:33.437Z,29.31
2022-08-10T19:16:03.810Z,29.85
2022-08-10T19:18:51.439Z,29.63
2022-08-10T19:21:31.688Z,29.80
2022-08-10T19:24:06.115Z,30.89
2022-08-10T19:26:54.828Z,30.51
2022-08-10T19:30:05.085Z,30.22
2022-08-10T19:32:45.360Z,30.66
2022-08-10T19:35:16.152Z,31.11
2022-08-10T19:38:00.657Z,30.50
2022-08-10T19:40:48.740Z,31.20
2022-08-10T19:43:59.539Z,30.94
2022-08-10T19:46:18.227Z,31.43
2022-08-10T19:49:08.374Z,31.15
2022-08-10T19:51:48.902Z,31.34
2022-08-10T19:54:20.611Z,31.34
2022-08-10T19:57:13.918Z,31.69
2022-08-10T20:00:16.724Z,31.37
2022-08-10T20:03:12.217Z,31.88
2022-08-10T20:06:15.353Z,32.05
2022-08-10T20:08:46.704Z,31.81
2022-08-10T20:11:44.558Z,32.06
2022-08-10T20:14:21.902Z,31.99
2022-08-10T20:16:51.256Z,32.56
2022-08-10T20:19:53.888Z,32.44
2022-08-10T20:22:15.799Z,32.11
2022-08-10T20:24:47.784Z,32.17
2022-08-10T20:27:58.925Z,32.36
2022-08-10T20:30:14.193Z,32.18
2022-08-10T20:32:49.465Z,32.45
2022-08-10T20:35:26.887Z,31.98
2022-08-10T20:38:09.154Z,32.17
2022-08-10T20:40:46.172Z,31.93
2022-08-10T20:43:22.818Z,29.56
2022-08-10T20:46:08.980Z,31.00
2022-08-10T20:48:40.601Z,31.72
2022-08-10T20:51:15.582Z,31.26
2022-08-10T20:53:46.735Z,31.76
2022-08-10T20:56:28.319Z,32.10
2022-08-10T20:59:09.129Z,31.30
2022-08-10T21:02:06.868Z,31.12
2022-08-10T21:04:57.770Z,33.03
2022-08-10T21:08:01.166Z,32.00
2022-08-10T21:11:18.711Z,31.26
2022-08-10T21:14:11.213Z,31.62
2022-08-10T21:17:05.455Z,30.99
2022-08-10T21:19:55.664Z,32.04
2022-08-10T21:22:47.087Z,30.58
2022-08-10T21:25:17.747Z,31.43
2022-08-10T21:27:49.484Z,30.85
2022-08-10T21:30:54.408Z,30.95
2022-08-10T21:34:19.537Z,31.71
2022-08-10T21:37:13.409Z,31.57
2022-08-10T21:39:48.115Z,31.18
2022-08-10T21:43:22.766Z,31.14
2022-08-10T21:46:28.485Z,32.04
2022-08-10T21:49:22.826Z,31.80
2022-08-10T21:52:33.311Z,31.75
2022-08-10T21:55:24.106Z,31.59
2022-08-10T21:58:37.287Z,32.13
2022-08-10T22:01:40.198Z,32.77
2022-08-10T22:04:26.555Z,32.47
2022-08-10T22:07:12.622Z,32.27
2022-08-10T22:10:03.911Z,32.27
2022-08-10T22:12:55.036Z,32.24
2022-08-10T22:16:05.563Z,31.92
2022-08-10T22:19:02.082Z,32.18
2022-08-10T22:22:08.247Z,32.78
2022-08-10T22:25:16.462Z,33.27
2022-08-10T22:28:03.584Z,32.87
2022-08-10T22:31:22.766Z,33.20
2022-08-10T22:34:30.219Z,33.51
2022-08-10T22:37:58.237Z,33.61
2022-08-10T22:40:54.339Z,33.68
2022-08-10T22:43:45.895Z,33.76
2022-08-10T22:46:48.252Z,34.04
2022-08-10T22:49:24.598Z,34.59
2022-08-10T22:51:52.063Z,34.68
2022-08-10T22:54:56.134Z,34.21
2022-08-10T22:57:42.574Z,33.74
2022-08-10T23:00:20.400Z,33.75
2022-08-10T23:03:10.480Z,34.32
2022-08-10T23:05:48.507Z,33.35
2022-08-10T23:08:32.716Z,34.81
2022-08-10T23:11:05.060Z,34.29
2022-08-10T23:13:36.467Z,34.58
2022-08-10T23:16:24.148Z,34.89
2022-08-10T23:19:11.499Z,34.83
2022-08-10T23:22:10.368Z,34.90
2022-08-10T23:24:53.716Z,34.67
2022-08-10T23:27:38.457Z,34.46
2022-08-10T23:30:17.982Z,35.49
2022-08-10T23:32:49.903Z,34.99
2022-08-10T23:36:29.877Z,34.61
2022-08-10T23:38:06.845Z,34.33
2022-08-10T23:40:34.540Z,34.85
2022-08-10T23:43:01.904Z,35.17
2022-08-10T23:45:52.267Z,35.53
2022-08-10T23:48:18.963Z,35.81
2022-08-10T23:50:58.204Z,35.22
2022-08-10T23:53:35.414Z,35.55
2022-08-10T23:56:22.918Z,36.52
2022-08-10T23:58:53.725Z,35.91
